BZRK1: S Cottonwood River nr Bazarr KS

                                SHEF ID:       BZRK1     SF COTTONWOOD R NR BAZAAR, KS
STATION TYPE:

PRECIP PRECIP(A) STAGE RIV-FLOW BAT-LOAD
in in ft cfs volt
Ccp-Rev Ccp-Rev Ccp-Rev Ccp-Rev Ccp-Rev
(America/Chicago)
08/13 00:00 0.00 ---- 10.04 498 12.17
08/13 01:00 0.00 ---- 10.00 488 12.15
08/13 02:00 0.00 ---- 9.98 482 12.14
08/13 03:00 0.00 ---- 9.94 466 12.13
08/13 04:00 0.00 ---- 9.93 462 12.12
08/13 05:00 0.00 ---- 10.05 501 12.11
08/13 06:00 0.00 ---- 9.88 443 12.08
08/13 07:00 0.00 ---- 9.85 432 12.07
08/13 08:00 0.00 ---- 9.85 432 12.14
08/13 09:00 0.00 ---- 9.81 417 12.71
08/13 10:00 0.00 ---- 9.79 410 13.39
08/13 11:00 0.00 ---- 9.78 407 13.30
08/13 12:00 0.00 ---- 9.77 403 13.19
08/13 13:00 0.00 ---- 9.75 397 13.16
08/13 14:00 0.00 ---- 9.74 394 13.14
08/13 15:00 0.00 ---- 9.72 387 13.08
08/13 16:00 0.00 ---- 9.70 381 13.09
08/13 17:00 0.00 ---- 9.70 381 13.11
08/13 18:00 0.00 ---- 9.67 372 13.16
08/13 19:00 0.00 ---- 9.65 365 13.20
08/13 20:00 0.00 ---- 9.63 360 12.81
08/13 21:00 0.00 ---- 9.61 355 12.27
08/13 22:00 0.00 ---- 9.59 350 12.20
08/13 23:00 0.00 ---- 9.57 346 12.19
Data processed at Thu 14Aug2025 04:44 GMT

Parsing this webpage?

Checkout our new Data API! CWMSDataAPI (CDA)

Timeseries IDs (TSIDs)

TSIDs used from left to right in the data table
BAZA.Precip-Inc.Total.1Hour.1Hour.Ccp-Rev
BAZA.Precip-Inc Alt.Total.1Hour.1Hour.Ccp-Rev
BAZA.Stage.Inst.1Hour.0.Ccp-Rev
BAZA.Flow.Inst.1Hour.0.Ccp-Rev
BAZA.Volt-Battery Load.Inst.1Hour.0.Ccp-Rev

                            

All information presented herein is the property of the government of the United States of America and may be revised or deleted at any time without prior notice. Dissemination of this information without the expressed written consent of the Public Affairs Office, Tulsa District U.S. Army Corps of Engineers is strictly prohibited. These data are gathered electronically and, as presented, have NOT undergone any form of quality control. These data are NOT guaranteed to be valid or correct.